Skardu Weather



Skardu's Current Weather

Temprature 17.65o few clouds

few clouds

Rain: 0 %

Min Temprature17.65o
Max Temprature17.65o
Humidity47
Wind Speed3.3 m/h
Sun Rise04:59:20
Sun Set18:48:36
Current Time: 08-May-2021 14:49:06
Lat/Lon: 35.2885, 75.6333




Skardu's Geo Location



Skardu's Weather Forecast

Time Overall Temp Min Temp Max Temp Humidity Wind Speed Rain
08-May-2021 (Sat)
17:00:00 light rain 17.300 16.860 17.300 47 3.4 m/h 26 %
20:00:00 scattered clouds 14.950 13.670 14.950 54 3.51 m/h 0 %
23:00:00 light rain 12.960 12.960 12.960 53 2.89 m/h 27 %
09-May-2021 (Sun)
02:00:00 scattered clouds 12.430 12.430 12.430 52 2.1 m/h 0 %
05:00:00 broken clouds 11.840 11.840 11.840 55 1.64 m/h 0 %
08:00:00 scattered clouds 14.800 14.800 14.800 48 0.34 m/h 0 %
11:00:00 scattered clouds 17.610 17.610 17.610 41 0.72 m/h 0 %
14:00:00 broken clouds 19.700 19.700 19.700 34 2.53 m/h 0 %
17:00:00 broken clouds 18.440 18.440 18.440 40 3.93 m/h 0 %
20:00:00 broken clouds 15.550 15.550 15.550 48 3.76 m/h 0 %
23:00:00 broken clouds 15.020 15.020 15.020 47 2.65 m/h 0 %
10-May-2021 (Mon)
02:00:00 broken clouds 14.400 14.400 14.400 46 1.7 m/h 0 %
05:00:00 broken clouds 13.610 13.610 13.610 48 1.35 m/h 0 %
08:00:00 scattered clouds 16.610 16.610 16.610 39 0.39 m/h 0 %
11:00:00 scattered clouds 19.560 19.560 19.560 30 0.62 m/h 0 %
14:00:00 few clouds 21.290 21.290 21.290 27 3.24 m/h 0 %
17:00:00 light rain 18.760 18.760 18.760 38 3.74 m/h 18 %
20:00:00 scattered clouds 15.990 15.990 15.990 47 4 m/h 0 %
23:00:00 scattered clouds 14.710 14.710 14.710 56 3.26 m/h 0 %
11-May-2021 (Tue)
02:00:00 scattered clouds 13.600 13.600 13.600 55 3.21 m/h 0 %
05:00:00 broken clouds 13.280 13.280 13.280 55 2.49 m/h 0 %
08:00:00 scattered clouds 16.340 16.340 16.340 44 0.91 m/h 0 %
11:00:00 broken clouds 19.410 19.410 19.410 36 2.63 m/h 0 %
14:00:00 scattered clouds 20.640 20.640 20.640 34 5.04 m/h 0 %
17:00:00 scattered clouds 19.490 19.490 19.490 38 4.95 m/h 0 %
20:00:00 overcast clouds 16.560 16.560 16.560 52 3.96 m/h 0 %
23:00:00 overcast clouds 14.490 14.490 14.490 59 3.9 m/h 0 %
12-May-2021 (Wed)
02:00:00 overcast clouds 13.440 13.440 13.440 59 2.89 m/h 0 %
05:00:00 overcast clouds 12.850 12.850 12.850 57 2.29 m/h 0 %
08:00:00 overcast clouds 15.180 15.180 15.180 47 0.84 m/h 0 %
11:00:00 overcast clouds 17.960 17.960 17.960 35 1.28 m/h 0 %
14:00:00 overcast clouds 17.990 17.990 17.990 42 3.82 m/h 0 %
17:00:00 overcast clouds 16.880 16.880 16.880 48 4.33 m/h 0 %
20:00:00 overcast clouds 14.070 14.070 14.070 62 2.35 m/h 0 %
23:00:00 overcast clouds 13.380 13.380 13.380 63 2.45 m/h 0 %
13-May-2021 (Thu)
02:00:00 overcast clouds 13.130 13.130 13.130 64 1.75 m/h 0 %
05:00:00 overcast clouds 11.860 11.860 11.860 70 2.85 m/h 0 %
08:00:00 overcast clouds 13.340 13.340 13.340 58 1.69 m/h 0 %
11:00:00 light rain 16.000 16.000 16.000 45 1.25 m/h 22 %
14:00:00 overcast clouds 15.740 15.740 15.740 50 4.33 m/h 0 %

Famous Cities (60)